createdAt,value
2023-04-10T00:00:31.717Z,2.50
2023-04-10T00:03:20.695Z,2.30
2023-04-10T00:05:51.011Z,2.40
2023-04-10T00:08:20.032Z,2.10
2023-04-10T00:10:48.886Z,2.10
2023-04-10T00:13:18.544Z,2.30
2023-04-10T00:15:48.389Z,2.40
2023-04-10T00:18:17.770Z,2.60
2023-04-10T00:20:46.337Z,2.60
2023-04-10T00:23:15.207Z,2.40
2023-04-10T00:25:43.889Z,2.60
2023-04-10T00:28:12.873Z,2.40
2023-04-10T00:30:41.494Z,2.70
2023-04-10T00:33:11.010Z,2.70
2023-04-10T00:35:40.216Z,2.70
2023-04-10T00:38:09.996Z,2.60
2023-04-10T00:40:39.286Z,2.80
2023-04-10T00:43:08.380Z,2.70
2023-04-10T00:45:37.318Z,2.50
2023-04-10T00:48:06.888Z,2.20
2023-04-10T00:50:35.975Z,2.10
2023-04-10T00:53:05.232Z,2.50
2023-04-10T00:55:34.462Z,2.40
2023-04-10T00:58:03.144Z,2.40
2023-04-10T01:00:32.688Z,1.50
2023-04-10T01:03:02.125Z,1.90
2023-04-10T01:05:39.938Z,2.20
2023-04-10T01:08:32.030Z,2.60
2023-04-10T01:11:29.418Z,2.40
2023-04-10T01:14:07.758Z,2.10
2023-04-10T01:16:50.209Z,2.00
2023-04-10T01:20:01.322Z,2.30
2023-04-10T01:23:17.961Z,2.50
2023-04-10T01:25:54.393Z,2.30
2023-04-10T01:28:44.494Z,2.20
2023-04-10T01:31:20.434Z,2.30
2023-04-10T01:33:53.085Z,2.20
2023-04-10T01:36:37.564Z,2.40
2023-04-10T01:39:07.499Z,2.10
2023-04-10T01:41:37.909Z,1.90
2023-04-10T01:44:07.670Z,2.10
2023-04-10T01:46:38.789Z,2.10
2023-04-10T01:49:09.278Z,2.10
2023-04-10T01:51:38.943Z,2.00
2023-04-10T01:54:08.906Z,2.10
2023-04-10T01:56:39.355Z,2.30
2023-04-10T01:59:09.060Z,2.40
2023-04-10T02:01:38.399Z,2.30
2023-04-10T02:04:07.819Z,2.30
2023-04-10T02:06:58.490Z,2.30
2023-04-10T02:09:56.136Z,2.50
2023-04-10T02:12:31.767Z,2.30
2023-04-10T02:15:03.094Z,2.20
2023-04-10T02:17:34.307Z,2.20
2023-04-10T02:20:06.392Z,2.50
2023-04-10T02:22:35.568Z,2.30
2023-04-10T02:25:06.610Z,2.50
2023-04-10T02:27:37.244Z,2.30
2023-04-10T02:30:07.132Z,2.10
2023-04-10T02:32:36.058Z,2.60
2023-04-10T02:35:05.184Z,2.50
2023-04-10T02:37:35.114Z,2.40
2023-04-10T02:40:04.305Z,2.30
2023-04-10T02:42:33.185Z,2.50
2023-04-10T02:45:01.833Z,2.50
2023-04-10T02:47:31.018Z,2.30
2023-04-10T02:50:00.177Z,2.40
2023-04-10T02:52:29.162Z,2.20
2023-04-10T02:54:58.256Z,2.20
2023-04-10T02:57:29.300Z,2.30
2023-04-10T02:59:58.635Z,2.40
2023-04-10T03:02:27.657Z,2.30
2023-04-10T03:04:56.867Z,2.40
2023-04-10T03:07:26.138Z,2.20
2023-04-10T03:09:55.085Z,2.40
2023-04-10T03:12:24.214Z,2.50
2023-04-10T03:14:53.526Z,2.50
2023-04-10T03:17:22.839Z,2.00
2023-04-10T03:19:52.144Z,2.30
2023-04-10T03:22:21.785Z,2.50
2023-04-10T03:24:51.195Z,2.40
2023-04-10T03:27:21.198Z,2.20
2023-04-10T03:29:50.017Z,2.20
2023-04-10T03:32:19.266Z,2.40
2023-04-10T03:34:48.043Z,2.20
2023-04-10T03:37:16.938Z,2.50
2023-04-10T03:39:46.504Z,2.20
2023-04-10T03:42:15.752Z,2.10
2023-04-10T03:44:44.782Z,2.20
2023-04-10T03:47:14.076Z,2.30
2023-04-10T03:49:42.895Z,2.20
2023-04-10T03:52:11.702Z,2.50
2023-04-10T03:54:40.322Z,2.20
2023-04-10T03:57:09.507Z,2.20
2023-04-10T03:59:38.819Z,2.40
2023-04-10T04:02:08.175Z,2.50
2023-04-10T04:04:37.404Z,2.30
2023-04-10T04:07:06.469Z,2.10
2023-04-10T04:09:35.362Z,2.40
2023-04-10T04:12:03.974Z,2.40
2023-04-10T04:14:32.913Z,2.10
2023-04-10T04:17:02.142Z,1.90
2023-04-10T04:19:31.316Z,2.10
2023-04-10T04:22:00.789Z,2.50
2023-04-10T04:24:29.869Z,2.40
2023-04-10T04:26:58.335Z,2.30
2023-04-10T04:29:27.568Z,2.20
2023-04-10T04:31:56.359Z,2.20
2023-04-10T04:34:25.249Z,2.40
2023-04-10T04:36:54.055Z,2.40
2023-04-10T04:39:23.545Z,2.30
2023-04-10T04:41:52.423Z,2.30
2023-04-10T04:44:21.100Z,2.20
2023-04-10T04:46:49.816Z,2.30
2023-04-10T04:49:18.302Z,2.20
2023-04-10T04:51:47.310Z,2.00
2023-04-10T04:54:16.088Z,2.20
2023-04-10T04:56:45.038Z,2.40
2023-04-10T04:59:14.237Z,2.40
2023-04-10T05:01:42.983Z,2.30
2023-04-10T05:04:11.799Z,2.20
2023-04-10T05:06:40.670Z,2.30
2023-04-10T05:09:09.374Z,2.50
2023-04-10T05:11:38.480Z,2.60
2023-04-10T05:14:07.433Z,2.40
2023-04-10T05:16:36.606Z,2.00
2023-04-10T05:19:05.697Z,2.50
2023-04-10T05:21:36.021Z,2.30
2023-04-10T05:24:05.283Z,2.20
2023-04-10T05:26:34.622Z,2.40
2023-04-10T05:29:03.665Z,2.30
2023-04-10T05:31:32.742Z,2.40
2023-04-10T05:34:02.118Z,2.40
2023-04-10T05:36:32.460Z,2.30
2023-04-10T05:39:01.692Z,3.20
2023-04-10T05:41:30.277Z,2.30
2023-04-10T05:43:59.329Z,2.20
2023-04-10T05:46:28.347Z,2.30
2023-04-10T05:48:57.253Z,2.60
2023-04-10T05:51:27.647Z,2.50
2023-04-10T05:53:57.101Z,2.70
2023-04-10T05:56:25.991Z,2.80
2023-04-10T05:58:55.136Z,2.80
2023-04-10T06:01:23.975Z,2.70
2023-04-10T06:03:53.145Z,3.00
2023-04-10T06:06:22.718Z,2.70
2023-04-10T06:08:52.266Z,2.60
2023-04-10T06:11:22.327Z,2.70
2023-04-10T06:13:52.760Z,2.60
2023-04-10T06:16:21.855Z,2.50
2023-04-10T06:18:53.079Z,2.50
2023-04-10T06:21:21.862Z,2.70
2023-04-10T06:23:51.879Z,2.40
2023-04-10T06:26:21.281Z,2.50
2023-04-10T06:28:50.150Z,2.30
2023-04-10T06:31:22.318Z,2.40
2023-04-10T06:33:51.190Z,3.00
2023-04-10T06:36:20.040Z,2.80
2023-04-10T06:38:48.786Z,2.50
2023-04-10T06:41:18.451Z,2.80
2023-04-10T06:43:47.618Z,3.20
2023-04-10T06:46:16.636Z,3.10
2023-04-10T06:48:45.546Z,2.80
2023-04-10T06:51:14.235Z,3.20
2023-04-10T06:53:43.042Z,3.20
2023-04-10T06:56:11.817Z,2.90
2023-04-10T06:58:41.674Z,3.00
2023-04-10T07:01:10.809Z,6.70
2023-04-10T07:03:39.871Z,6.90
2023-04-10T07:06:13.131Z,7.00
2023-04-10T07:08:42.466Z,4.90
2023-04-10T07:11:13.112Z,3.00
2023-04-10T07:13:42.315Z,4.10
2023-04-10T07:16:13.181Z,3.40
2023-04-10T07:18:44.264Z,3.10
2023-04-10T07:21:14.339Z,3.00
2023-04-10T07:23:44.368Z,2.50
2023-04-10T07:26:15.059Z,2.70
2023-04-10T07:28:44.282Z,2.80
2023-04-10T07:31:14.685Z,2.60
2023-04-10T07:33:47.626Z,3.30
2023-04-10T07:36:17.873Z,4.10
2023-04-10T07:38:47.662Z,4.00
2023-04-10T07:41:17.069Z,5.30
2023-04-10T07:43:46.941Z,3.80
2023-04-10T07:46:18.667Z,3.00
2023-04-10T07:48:51.302Z,2.70
2023-04-10T07:51:21.991Z,3.20
2023-04-10T07:53:51.924Z,3.10
2023-04-10T07:56:22.265Z,2.40
2023-04-10T07:58:52.515Z,1.90
2023-04-10T08:01:22.322Z,2.10
2023-04-10T08:03:53.138Z,3.20
2023-04-10T08:06:23.293Z,2.60
2023-04-10T08:08:56.255Z,2.40
2023-04-10T08:11:31.369Z,2.40
2023-04-10T08:14:02.854Z,3.20
2023-04-10T08:16:34.847Z,2.40
2023-04-10T08:19:04.954Z,3.30
2023-04-10T08:21:33.970Z,4.10
2023-04-10T08:24:04.758Z,2.50
2023-04-10T08:26:34.215Z,2.50
2023-04-10T08:29:04.459Z,2.20
2023-04-10T08:31:34.505Z,2.30
2023-04-10T08:34:05.074Z,2.70
2023-04-10T08:36:35.615Z,3.90
2023-04-10T08:39:05.484Z,3.20
2023-04-10T08:41:34.589Z,3.40
2023-04-10T08:44:06.956Z,1.90
2023-04-10T08:46:38.193Z,2.00
2023-04-10T08:49:08.243Z,2.30
2023-04-10T08:51:48.670Z,2.30
2023-04-10T08:54:21.914Z,3.10
2023-04-10T08:56:54.634Z,3.60
2023-04-10T08:59:23.843Z,3.60
2023-04-10T09:01:53.897Z,2.60
2023-04-10T09:04:26.967Z,3.30
2023-04-10T09:06:56.218Z,2.90
2023-04-10T09:09:25.717Z,2.50
2023-04-10T09:11:55.998Z,2.70
2023-04-10T09:14:27.291Z,3.60
2023-04-10T09:17:12.002Z,4.70
2023-04-10T09:19:41.936Z,3.30
2023-04-10T09:22:12.141Z,2.80
2023-04-10T09:24:43.889Z,2.80
2023-04-10T09:27:29.709Z,2.40
2023-04-10T09:29:59.043Z,2.30
2023-04-10T09:32:44.331Z,4.90
2023-04-10T09:35:15.878Z,1.90
2023-04-10T09:37:47.319Z,2.00
2023-04-10T09:40:27.066Z,2.00
2023-04-10T09:42:58.046Z,2.30
2023-04-10T09:45:27.562Z,4.00
2023-04-10T09:48:08.447Z,2.90
2023-04-10T09:50:40.421Z,2.70
2023-04-10T09:53:15.009Z,2.00
2023-04-10T09:55:44.376Z,2.00
2023-04-10T09:58:14.821Z,4.50
2023-04-10T10:00:50.518Z,7.20
2023-04-10T10:03:23.733Z,2.90
2023-04-10T10:05:52.891Z,2.80
2023-04-10T10:08:22.928Z,2.50
2023-04-10T10:10:55.619Z,1.90
2023-04-10T10:13:29.923Z,1.90
2023-04-10T10:16:05.110Z,4.90
2023-04-10T10:18:46.719Z,3.60
2023-04-10T10:21:16.860Z,4.70
2023-04-10T10:23:49.642Z,5.90
2023-04-10T10:26:21.361Z,4.20
2023-04-10T10:28:53.794Z,7.70
2023-04-10T10:31:25.823Z,6.30
2023-04-10T10:33:56.846Z,5.70
2023-04-10T10:36:28.109Z,3.30
2023-04-10T10:39:09.647Z,4.20
2023-04-10T10:41:50.162Z,2.70
2023-04-10T10:44:46.407Z,3.70
2023-04-10T10:47:20.368Z,3.70
2023-04-10T10:50:00.720Z,3.50
2023-04-10T10:52:51.921Z,2.90
2023-04-10T10:55:28.377Z,3.00
2023-04-10T10:58:01.668Z,2.00
2023-04-10T11:00:52.859Z,2.60
2023-04-10T11:03:23.185Z,2.90
2023-04-10T11:05:56.707Z,5.50
2023-04-10T11:08:41.082Z,3.30
2023-04-10T11:11:13.574Z,3.20
2023-04-10T11:13:56.779Z,3.20
2023-04-10T11:16:33.602Z,2.70
2023-04-10T11:19:15.803Z,3.00
2023-04-10T11:21:58.699Z,2.90
2023-04-10T11:24:29.003Z,3.00
2023-04-10T11:27:00.479Z,3.60
2023-04-10T11:29:32.304Z,3.50
2023-04-10T11:32:07.085Z,3.40
2023-04-10T11:34:46.197Z,3.00
2023-04-10T11:37:24.513Z,3.30
2023-04-10T11:40:07.618Z,3.00
2023-04-10T11:42:37.001Z,2.90
2023-04-10T11:45:29.010Z,2.70
2023-04-10T11:48:00.454Z,2.90
2023-04-10T11:50:32.894Z,3.00
2023-04-10T11:53:02.349Z,4.40
2023-04-10T11:55:40.124Z,2.60
2023-04-10T11:58:26.608Z,2.70
2023-04-10T12:01:04.752Z,2.40
2023-04-10T12:03:40.694Z,2.70
2023-04-10T12:06:15.797Z,2.40
2023-04-10T12:08:52.727Z,2.60
2023-04-10T12:11:24.917Z,2.40
2023-04-10T12:13:56.088Z,2.30
2023-04-10T12:16:28.239Z,2.30
2023-04-10T12:18:58.284Z,3.20
2023-04-10T12:21:27.928Z,2.70
2023-04-10T12:23:57.139Z,3.00
2023-04-10T12:26:27.631Z,2.90
2023-04-10T12:28:58.473Z,3.30
2023-04-10T12:31:31.276Z,2.50
2023-04-10T12:34:05.803Z,2.60
2023-04-10T12:36:35.495Z,2.30
2023-04-10T12:39:06.544Z,2.40
2023-04-10T12:41:38.024Z,2.60
2023-04-10T12:44:15.762Z,2.50
2023-04-10T12:46:46.792Z,2.60
2023-04-10T12:49:19.197Z,2.90
2023-04-10T12:51:50.852Z,2.90
2023-04-10T12:54:30.078Z,2.70
2023-04-10T12:57:00.273Z,3.20
2023-04-10T12:59:33.050Z,2.70
2023-04-10T13:02:02.150Z,3.10
2023-04-10T13:04:33.765Z,2.80
2023-04-10T13:07:03.634Z,3.00
2023-04-10T13:09:32.745Z,3.00
2023-04-10T13:12:02.380Z,2.50
2023-04-10T13:14:32.400Z,5.30
2023-04-10T13:17:01.425Z,4.50
2023-04-10T13:19:31.487Z,3.30
2023-04-10T13:22:02.774Z,2.90
2023-04-10T13:24:32.238Z,2.60
2023-04-10T13:27:02.574Z,2.80
2023-04-10T13:29:31.934Z,2.40
2023-04-10T13:32:02.133Z,2.80
2023-04-10T13:34:34.991Z,2.80
2023-04-10T13:37:04.234Z,2.80
2023-04-10T13:39:33.832Z,2.70
2023-04-10T13:42:03.274Z,2.50
2023-04-10T13:44:32.960Z,2.70
2023-04-10T13:47:02.725Z,2.50
2023-04-10T13:49:32.312Z,2.60
2023-04-10T13:52:02.212Z,2.50
2023-04-10T13:54:31.569Z,3.00
2023-04-10T13:57:01.681Z,3.30
2023-04-10T13:59:31.230Z,2.60
2023-04-10T14:02:01.310Z,2.80
2023-04-10T14:04:30.474Z,2.20
2023-04-10T14:07:01.010Z,2.20
2023-04-10T14:09:30.358Z,2.50
2023-04-10T14:11:59.729Z,2.60
2023-04-10T14:14:29.245Z,2.90
2023-04-10T14:16:58.920Z,10.90
2023-04-10T14:19:28.805Z,16.00
2023-04-10T14:21:57.804Z,3.10
2023-04-10T14:24:26.730Z,18.60
2023-04-10T14:26:58.769Z,13.00
2023-04-10T14:32:02.248Z,11.00
2023-04-10T14:34:32.370Z,12.20
2023-04-10T14:37:03.516Z,4.90
2023-04-10T14:39:35.015Z,17.30
2023-04-10T14:42:04.475Z,12.40
2023-04-10T14:44:35.350Z,6.90
2023-04-10T14:47:07.533Z,8.60
2023-04-10T14:49:38.417Z,7.70
2023-04-10T14:52:09.524Z,7.00
2023-04-10T14:54:40.911Z,16.10
2023-04-10T14:57:11.699Z,16.10
2023-04-10T14:59:40.572Z,11.00
2023-04-10T15:02:10.185Z,5.40
2023-04-10T15:04:39.406Z,7.20
2023-04-10T15:07:08.883Z,10.00
2023-04-10T15:09:38.419Z,3.40
2023-04-10T15:12:08.384Z,4.30
2023-04-10T15:14:38.824Z,3.20
2023-04-10T15:17:08.296Z,3.00
2023-04-10T15:19:38.084Z,3.00
2023-04-10T15:22:07.728Z,3.00
2023-04-10T15:24:49.332Z,2.90
2023-04-10T15:27:22.835Z,4.10
2023-04-10T15:29:52.204Z,2.80
2023-04-10T15:32:21.386Z,2.80
2023-04-10T15:34:51.230Z,4.50
2023-04-10T15:37:22.134Z,3.30
2023-04-10T15:39:51.850Z,3.60
2023-04-10T15:42:21.708Z,3.10
2023-04-10T15:44:51.941Z,2.60
2023-04-10T15:47:21.369Z,2.90
2023-04-10T15:49:50.838Z,3.40
2023-04-10T15:52:19.730Z,3.00
2023-04-10T15:54:51.264Z,2.70
2023-04-10T15:57:21.976Z,3.10
2023-04-10T15:59:54.614Z,3.10
2023-04-10T16:02:24.191Z,3.10
2023-04-10T16:04:54.407Z,3.20
2023-04-10T16:07:26.655Z,3.10
2023-04-10T16:09:57.559Z,3.30
2023-04-10T16:12:27.348Z,3.20
2023-04-10T16:14:57.954Z,3.50
2023-04-10T16:17:27.432Z,3.20
2023-04-10T16:19:58.235Z,3.40
2023-04-10T16:22:28.588Z,3.30
2023-04-10T16:24:58.187Z,3.50
2023-04-10T16:27:28.143Z,3.50
2023-04-10T16:29:57.767Z,3.20
2023-04-10T16:32:28.436Z,3.30
2023-04-10T16:34:59.396Z,2.90
2023-04-10T16:37:28.373Z,4.60
2023-04-10T16:39:58.690Z,6.20
2023-04-10T16:42:28.020Z,9.30
2023-04-10T16:44:59.432Z,3.00
2023-04-10T16:47:29.532Z,3.50
2023-04-10T16:49:58.793Z,3.90
2023-04-10T16:52:33.190Z,3.30
2023-04-10T16:55:02.857Z,3.40
2023-04-10T16:57:34.006Z,3.20
2023-04-10T17:00:03.381Z,3.50
2023-04-10T17:02:34.809Z,3.90
2023-04-10T17:05:05.050Z,3.70
2023-04-10T17:07:35.341Z,3.80
2023-04-10T17:10:05.923Z,4.60
2023-04-10T17:12:36.882Z,4.10
2023-04-10T17:15:07.870Z,4.50
2023-04-10T17:17:37.453Z,4.40
2023-04-10T17:20:10.443Z,7.20
2023-04-10T17:22:41.343Z,8.10
2023-04-10T17:25:11.863Z,4.60
2023-04-10T17:27:41.454Z,4.40
2023-04-10T17:30:15.631Z,4.70
2023-04-10T17:32:46.103Z,4.50
2023-04-10T17:35:16.445Z,5.40
2023-04-10T17:37:45.508Z,5.90
2023-04-10T17:40:14.826Z,6.00
2023-04-10T17:42:44.848Z,6.10
2023-04-10T17:45:14.493Z,5.50
2023-04-10T17:47:44.938Z,6.60
2023-04-10T17:50:14.661Z,5.60
2023-04-10T17:52:44.997Z,6.20
2023-04-10T17:55:20.516Z,6.50
2023-04-10T17:57:51.247Z,8.50
2023-04-10T18:00:22.116Z,8.00
2023-04-10T18:02:53.602Z,6.50
2023-04-10T18:05:23.385Z,7.00
2023-04-10T18:07:52.546Z,8.30
2023-04-10T18:10:22.285Z,6.90
2023-04-10T18:12:51.442Z,6.90
2023-04-10T18:15:20.509Z,7.90
2023-04-10T18:17:49.599Z,5.30
2023-04-10T18:20:19.834Z,5.70
2023-04-10T18:22:49.560Z,6.00
2023-04-10T18:25:18.903Z,5.70
2023-04-10T18:28:12.574Z,5.70
2023-04-10T18:30:40.475Z,5.10
2023-04-10T18:33:11.260Z,5.10
2023-04-10T18:35:41.842Z,6.00
2023-04-10T18:38:11.593Z,6.40
2023-04-10T18:40:42.070Z,5.20
2023-04-10T18:43:11.707Z,4.50
2023-04-10T18:45:42.483Z,4.70
2023-04-10T18:48:11.499Z,4.50
2023-04-10T18:50:40.257Z,5.90
2023-04-10T18:53:10.201Z,7.00
2023-04-10T18:55:39.775Z,4.90
2023-04-10T18:58:08.875Z,4.60
2023-04-10T19:00:38.141Z,4.80
2023-04-10T19:03:08.323Z,4.70
2023-04-10T19:05:37.595Z,5.40
2023-04-10T19:08:06.818Z,5.60
2023-04-10T19:10:38.547Z,5.60
2023-04-10T19:13:12.481Z,6.20
2023-04-10T19:15:48.116Z,5.80
2023-04-10T19:18:17.733Z,5.30
2023-04-10T19:20:49.973Z,6.60
2023-04-10T19:23:25.172Z,6.10
2023-04-10T19:25:55.647Z,5.40
2023-04-10T19:28:26.136Z,5.80
2023-04-10T19:30:56.298Z,5.70
2023-04-10T19:33:27.113Z,6.80
2023-04-10T19:35:56.718Z,7.70
2023-04-10T19:38:27.921Z,6.10
2023-04-10T19:40:57.489Z,6.10
2023-04-10T19:43:27.285Z,5.20
2023-04-10T19:46:00.209Z,6.00
2023-04-10T19:48:29.883Z,5.30
2023-04-10T19:51:05.613Z,5.00
2023-04-10T19:53:35.118Z,6.30
2023-04-10T19:56:04.473Z,5.50
2023-04-10T19:58:40.714Z,5.00
2023-04-10T20:01:12.159Z,5.40
2023-04-10T20:03:41.773Z,5.30
2023-04-10T20:06:12.117Z,5.50
2023-04-10T20:08:41.831Z,5.30
2023-04-10T20:11:11.294Z,5.60
2023-04-10T20:13:42.083Z,5.00
2023-04-10T20:16:12.399Z,5.30
2023-04-10T20:18:41.742Z,6.30
2023-04-10T20:21:11.772Z,6.10
2023-04-10T20:23:41.751Z,5.80
2023-04-10T20:26:12.538Z,5.20
2023-04-10T20:28:41.897Z,5.10
2023-04-10T20:31:13.099Z,5.20
2023-04-10T20:33:42.844Z,4.70
2023-04-10T20:36:13.571Z,5.40
2023-04-10T20:38:43.130Z,6.70
2023-04-10T20:41:12.985Z,7.30
2023-04-10T20:43:42.887Z,7.10
2023-04-10T20:46:12.949Z,6.50
2023-04-10T20:48:42.405Z,5.50
2023-04-10T20:51:11.664Z,4.80
2023-04-10T20:53:41.022Z,5.00
2023-04-10T20:56:11.000Z,5.50
2023-04-10T20:58:40.111Z,5.40
2023-04-10T21:01:10.930Z,5.70
2023-04-10T21:03:40.100Z,6.90
2023-04-10T21:06:09.992Z,7.10
2023-04-10T21:08:39.153Z,5.20
2023-04-10T21:11:08.626Z,5.40
2023-04-10T21:13:38.734Z,5.80
2023-04-10T21:16:08.690Z,7.20
2023-04-10T21:18:38.373Z,4.90
2023-04-10T21:21:08.030Z,5.40
2023-04-10T21:23:37.368Z,7.00
2023-04-10T21:26:06.777Z,7.10
2023-04-10T21:28:36.355Z,5.10
2023-04-10T21:31:06.038Z,5.00
2023-04-10T21:33:35.973Z,4.80
2023-04-10T21:36:07.330Z,5.00
2023-04-10T21:38:37.659Z,5.00
2023-04-10T21:41:07.622Z,5.60
2023-04-10T21:43:37.472Z,6.10
2023-04-10T21:46:08.493Z,6.50
2023-04-10T21:48:37.501Z,7.20
2023-04-10T21:51:06.651Z,7.30
2023-04-10T21:53:35.339Z,6.80
2023-04-10T21:56:04.226Z,7.20
2023-04-10T21:58:33.428Z,6.90
2023-04-10T22:01:03.187Z,6.90
2023-04-10T22:03:33.235Z,6.10
2023-04-10T22:06:03.063Z,5.40
2023-04-10T22:08:33.039Z,5.40
2023-04-10T22:11:05.274Z,5.20
2023-04-10T22:13:36.328Z,5.10
2023-04-10T22:16:06.673Z,5.00
2023-04-10T22:18:36.417Z,4.70
2023-04-10T22:21:06.050Z,5.40
2023-04-10T22:23:35.773Z,5.90
2023-04-10T22:26:05.210Z,5.50
2023-04-10T22:28:34.776Z,5.70
2023-04-10T22:31:04.648Z,5.90
2023-04-10T22:33:35.665Z,6.00
2023-04-10T22:36:06.270Z,6.20
2023-04-10T22:38:36.744Z,5.80
2023-04-10T22:41:07.111Z,6.50
2023-04-10T22:43:37.392Z,5.40
2023-04-10T22:46:07.066Z,16.40
2023-04-10T22:48:37.368Z,64.10
2023-04-10T22:51:14.358Z,46.80
2023-04-10T22:53:45.784Z,35.80
2023-04-10T22:56:16.874Z,16.60
2023-04-10T22:58:47.400Z,25.10
2023-04-10T23:01:18.705Z,21.20
2023-04-10T23:03:54.310Z,8.50
2023-04-10T23:06:24.422Z,14.70
2023-04-10T23:08:54.788Z,4.90
2023-04-10T23:11:24.312Z,5.30
2023-04-10T23:13:53.742Z,31.80
2023-04-10T23:16:23.301Z,15.00
2023-04-10T23:18:52.062Z,39.10
2023-04-10T23:21:21.331Z,18.10
2023-04-10T23:23:50.332Z,8.80
2023-04-10T23:26:19.734Z,11.50
2023-04-10T23:28:49.109Z,6.10
2023-04-10T23:31:18.309Z,4.00
2023-04-10T23:33:47.091Z,5.40
2023-04-10T23:36:16.130Z,4.90
2023-04-10T23:38:45.091Z,5.00
2023-04-10T23:41:14.136Z,5.20
2023-04-10T23:43:43.146Z,5.00
2023-04-10T23:46:12.427Z,5.00
2023-04-10T23:48:42.037Z,5.20
2023-04-10T23:51:11.328Z,5.30
2023-04-10T23:53:41.106Z,4.90
2023-04-10T23:56:10.174Z,4.90
2023-04-10T23:58:39.519Z,5.50
